Time;durP1;ratioP1;P1;durP2;ratioP2;P2;SDS_P1;SDS_P2;PMS_P1;PMS_P2;Temp;Humidity;BMP_temperature;BMP_pressure;BME280_temperature;BME280_humidity;BME280_pressure;Samples;Min_cycle;Max_cycle;Signal;HPM_P1;HPM_P2
2021/03/08 00:02:23;;;;;;;8.37;6.30;;;3.40;92.70;;;;;;5028493;28;20219;-68
2021/03/08 00:04:49;;;;;;;7.10;6.00;;;3.40;92.90;;;;;;5010946;28;20538;-68
2021/03/08 00:07:14;;;;;;;8.13;6.03;;;3.40;93.20;;;;;;5029603;28;20246;-68
2021/03/08 00:09:41;;;;;;;8.00;5.67;;;3.40;92.90;;;;;;5031093;28;20183;-68
2021/03/08 00:12:07;;;;;;;6.50;5.40;;;3.40;91.60;;;;;;5030751;28;20210;-67
2021/03/08 00:14:33;;;;;;;6.93;5.90;;;3.40;91.80;;;;;;5031265;28;20481;-66
2021/03/08 00:16:59;;;;;;;6.97;5.47;;;3.40;91.90;;;;;;5030895;28;20423;-66
2021/03/08 00:19:24;;;;;;;6.37;5.07;;;3.40;92.20;;;;;;5018073;28;20927;-69
2021/03/08 00:21:50;;;;;;;6.40;5.40;;;3.40;92.00;;;;;;5011138;28;20200;-69
2021/03/08 00:24:16;;;;;;;7.23;4.97;;;3.30;91.80;;;;;;5017833;28;20180;-66
2021/03/08 00:26:41;;;;;;;6.90;4.83;;;3.30;91.50;;;;;;5029747;28;20271;-68
2021/03/08 00:29:08;;;;;;;6.37;4.83;;;3.20;92.10;;;;;;5030550;28;20217;-69
2021/03/08 00:31:33;;;;;;;5.93;4.80;;;3.20;92.60;;;;;;5031164;28;20172;-69
2021/03/08 00:33:59;;;;;;;6.23;4.87;;;3.20;92.30;;;;;;5013262;28;20759;-68
2021/03/08 00:36:24;;;;;;;6.47;5.03;;;3.20;92.10;;;;;;5030498;28;20190;-67
2021/03/08 00:38:50;;;;;;;6.23;4.83;;;3.20;92.30;;;;;;5024514;28;20266;-67
2021/03/08 00:41:15;;;;;;;6.13;4.83;;;3.20;93.40;;;;;;5012132;28;20554;-65
2021/03/08 00:43:41;;;;;;;5.53;4.60;;;3.20;92.80;;;;;;5019732;28;20221;-70
2021/03/08 00:46:07;;;;;;;6.87;5.10;;;3.30;92.40;;;;;;5034635;28;20195;-69
2021/03/08 00:48:32;;;;;;;8.27;6.23;;;3.20;92.30;;;;;;5034738;28;20254;-68
2021/03/08 00:50:58;;;;;;;5.73;4.90;;;3.20;92.60;;;;;;5028862;28;20216;-67
2021/03/08 00:53:23;;;;;;;7.13;5.03;;;3.20;92.60;;;;;;5014580;28;20267;-67
2021/03/08 00:55:49;;;;;;;6.90;5.30;;;3.20;92.70;;;;;;5014852;28;20238;-67
2021/03/08 00:58:15;;;;;;;5.63;4.40;;;3.20;92.50;;;;;;5014956;28;20192;-66
2021/03/08 01:00:40;;;;;;;8.57;4.77;;;3.10;91.90;;;;;;5014425;28;20243;-66
2021/03/08 01:03:06;;;;;;;5.60;4.97;;;3.00;92.40;;;;;;5014568;28;20251;-66
2021/03/08 01:05:31;;;;;;;6.60;5.17;;;2.90;93.50;;;;;;5014632;28;20198;-69
2021/03/08 01:07:57;;;;;;;7.80;5.13;;;2.80;92.30;;;;;;5014537;28;20184;-69
2021/03/08 01:10:28;;;;;;;6.53;4.43;;;2.90;93.40;;;;;;5014370;28;20243;-67
2021/03/08 01:12:53;;;;;;;9.20;5.00;;;2.80;93.50;;;;;;5014407;28;20203;-68
2021/03/08 01:15:19;;;;;;;7.17;4.67;;;2.90;93.50;;;;;;5014416;28;20893;-70
2021/03/08 01:17:45;;;;;;;7.57;5.10;;;2.80;94.10;;;;;;5014093;28;20173;-67
2021/03/08 01:20:14;;;;;;;5.83;4.30;;;2.90;93.30;;;;;;5014382;28;20254;-68
2021/03/08 01:22:40;;;;;;;6.07;4.43;;;2.80;93.70;;;;;;5014137;28;20259;-70
2021/03/08 01:25:14;;;;;;;5.43;4.70;;;2.80;92.80;;;;;;5014191;28;20522;-67
2021/03/08 01:27:40;;;;;;;5.77;4.30;;;2.70;93.30;;;;;;5013845;28;20560;-69
2021/03/08 01:30:15;;;;;;;6.87;4.67;;;2.70;93.30;;;;;;5014379;28;20498;-66
2021/03/08 01:32:41;;;;;;;7.47;4.47;;;2.50;93.30;;;;;;5014001;28;20484;-68
2021/03/08 01:35:07;;;;;;;6.37;5.20;;;2.60;94.00;;;;;;5013818;28;20901;-69
2021/03/08 01:37:33;;;;;;;7.37;4.70;;;2.50;93.60;;;;;;4996417;28;20693;-69
2021/03/08 01:40:00;;;;;;;7.20;4.77;;;2.50;94.70;;;;;;5013645;28;20427;-66
2021/03/08 01:42:26;;;;;;;6.50;4.70;;;2.50;95.20;;;;;;5013827;28;20593;-68
2021/03/08 01:44:51;;;;;;;6.60;3.83;;;2.40;96.60;;;;;;5013716;28;20466;-69
2021/03/08 01:47:17;;;;;;;5.30;4.23;;;2.40;95.40;;;;;;5013938;28;20187;-68
2021/03/08 01:49:43;;;;;;;7.60;4.23;;;2.50;95.60;;;;;;4995983;28;20270;-66
2021/03/08 01:52:10;;;;;;;5.13;3.97;;;2.60;95.70;;;;;;5023977;28;20219;-67
2021/03/08 01:54:36;;;;;;;6.97;4.37;;;2.70;95.40;;;;;;5015571;28;20188;-67
2021/03/08 01:57:02;;;;;;;6.20;4.47;;;2.60;95.10;;;;;;5033162;28;20438;-68
2021/03/08 01:59:28;;;;;;;6.00;4.37;;;2.70;95.00;;;;;;5033221;28;20896;-67
2021/03/08 02:01:55;;;;;;;8.30;4.13;;;2.70;95.60;;;;;;5032907;28;20540;-68
2021/03/08 02:04:21;;;;;;;6.27;4.20;;;2.70;95.00;;;;;;5033126;28;20439;-68
2021/03/08 02:06:47;;;;;;;7.53;5.00;;;2.70;95.80;;;;;;5032774;28;20843;-69
2021/03/08 02:09:14;;;;;;;7.00;4.90;;;2.70;94.70;;;;;;5032970;28;20506;-68
2021/03/08 02:11:39;;;;;;;6.57;4.50;;;2.70;95.10;;;;;;5033179;28;20565;-68
2021/03/08 02:14:30;;;;;;;4.63;4.17;;;2.60;94.30;;;;;;5033051;28;20426;-66
2021/03/08 02:17:16;;;;;;;5.27;4.03;;;2.70;96.10;;;;;;5015045;28;20214;-70
2021/03/08 02:19:51;;;;;;;6.97;4.60;;;2.60;96.20;;;;;;5023768;28;20415;-68
2021/03/08 02:22:36;;;;;;;5.67;4.40;;;2.70;96.30;;;;;;5032109;28;20764;-69
2021/03/08 02:25:25;;;;;;;6.50;4.37;;;2.70;96.00;;;;;;5032798;28;20815;-70
2021/03/08 02:28:32;;;;;;;6.10;4.77;;;2.70;95.80;;;;;;5012969;28;20437;-69
2021/03/08 02:31:02;;;;;;;6.80;4.43;;;2.60;95.80;;;;;;4952967;28;20729;-68
2021/03/08 02:33:30;;;;;;;5.87;4.40;;;2.60;95.80;;;;;;5032193;28;20414;-68
2021/03/08 02:36:00;;;;;;;6.97;4.70;;;2.60;95.70;;;;;;5029067;28;20779;-68
2021/03/08 02:38:30;;;;;;;11.17;5.10;;;2.60;96.10;;;;;;5013157;28;20764;-68
2021/03/08 02:41:08;;;;;;;5.63;4.60;;;2.60;96.90;;;;;;5019272;28;20796;-67
2021/03/08 02:43:41;;;;;;;5.83;4.63;;;2.60;96.40;;;;;;5016678;28;20450;-68
2021/03/08 02:46:10;;;;;;;7.27;4.93;;;2.70;95.70;;;;;;5019057;28;20489;-68
2021/03/08 02:48:40;;;;;;;5.43;4.53;;;2.50;97.00;;;;;;5012349;28;20408;-67
2021/03/08 02:51:07;;;;;;;5.03;4.50;;;2.50;97.10;;;;;;5015253;28;20524;-66
2021/03/08 02:53:36;;;;;;;6.63;4.97;;;2.50;96.60;;;;;;5012386;28;20526;-67
2021/03/08 02:56:06;;;;;;;7.43;4.83;;;2.40;96.40;;;;;;5012392;28;20416;-67
2021/03/08 02:58:34;;;;;;;5.70;4.47;;;2.30;96.80;;;;;;5012648;28;20506;-68
2021/03/08 03:01:01;;;;;;;7.30;4.63;;;2.40;97.40;;;;;;5011681;28;20533;-66
2021/03/08 03:03:31;;;;;;;6.07;4.83;;;2.30;96.40;;;;;;5012057;28;20422;-67
2021/03/08 03:05:58;;;;;;;6.20;4.67;;;2.20;97.20;;;;;;5012154;28;20912;-68
2021/03/08 03:08:26;;;;;;;7.30;5.47;;;2.10;98.00;;;;;;5012298;28;20418;-66
2021/03/08 03:10:52;;;;;;;6.53;5.63;;;2.20;98.60;;;;;;5012119;28;20849;-68
2021/03/08 03:13:18;;;;;;;6.93;4.90;;;2.20;98.50;;;;;;5012027;28;20419;-68
2021/03/08 03:15:45;;;;;;;5.90;5.00;;;2.20;98.10;;;;;;5012159;28;20420;-66
2021/03/08 03:18:12;;;;;;;8.80;5.03;;;2.20;98.30;;;;;;5012143;28;20446;-67
2021/03/08 03:20:38;;;;;;;7.77;5.10;;;2.20;99.10;;;;;;5011831;28;20490;-66
2021/03/08 03:23:06;;;;;;;9.80;5.33;;;2.20;98.30;;;;;;5011837;28;20423;-68
2021/03/08 03:25:32;;;;;;;7.93;5.00;;;2.10;98.70;;;;;;5012193;28;20415;-68
2021/03/08 03:27:58;;;;;;;9.10;5.07;;;2.10;98.50;;;;;;5011681;28;20424;-67
2021/03/08 03:30:28;;;;;;;8.30;4.93;;;2.00;98.80;;;;;;5011668;28;20424;-67
2021/03/08 03:32:55;;;;;;;7.20;4.97;;;1.90;99.10;;;;;;5011866;28;20416;-68
2021/03/08 03:35:24;;;;;;;9.57;5.17;;;1.90;99.90;;;;;;5011798;28;20427;-67
2021/03/08 03:37:50;;;;;;;7.33;5.33;;;1.80;99.30;;;;;;5011797;28;20443;-69
2021/03/08 03:40:18;;;;;;;6.03;5.07;;;1.80;99.80;;;;;;5011565;28;20783;-68
2021/03/08 03:42:46;;;;;;;10.10;5.60;;;1.80;99.60;;;;;;5011786;28;20454;-68
2021/03/08 03:45:21;;;;;;;7.77;5.70;;;1.90;99.00;;;;;;5010688;28;20463;-67
2021/03/08 03:47:48;;;;;;;7.53;5.90;;;1.90;99.50;;;;;;5011639;28;20430;-68
2021/03/08 03:50:17;;;;;;;8.20;5.20;;;1.90;99.00;;;;;;5011598;28;20422;-67
2021/03/08 03:52:50;;;;;;;6.53;5.27;;;1.80;98.80;;;;;;5011685;28;20447;-67
2021/03/08 03:55:18;;;;;;;8.77;5.83;;;1.90;99.10;;;;;;5011549;28;20419;-68
2021/03/08 03:58:16;;;;;;;7.23;5.60;;;1.90;98.80;;;;;;5011632;28;20921;-68
2021/03/08 04:00:54;;;;;;;6.50;5.60;;;1.90;99.30;;;;;;5011652;28;20463;-67
2021/03/08 04:03:26;;;;;;;7.57;5.47;;;1.70;99.50;;;;;;5010308;28;20407;-67
2021/03/08 04:05:53;;;;;;;6.73;5.40;;;1.70;99.90;;;;;;5011319;28;20426;-69
2021/03/08 04:08:23;;;;;;;6.43;5.40;;;1.70;99.90;;;;;;5011168;28;21020;-69
2021/03/08 04:10:51;;;;;;;6.57;5.20;;;1.50;99.90;;;;;;5011334;28;20459;-67
2021/03/08 04:13:18;;;;;;;6.57;5.50;;;1.50;99.90;;;;;;5011423;28;20430;-67
2021/03/08 04:15:43;;;;;;;6.47;5.20;;;1.40;99.90;;;;;;5010616;28;20427;-68
2021/03/08 04:18:11;;;;;;;6.23;5.57;;;1.20;99.90;;;;;;5009873;28;20431;-67
2021/03/08 04:20:39;;;;;;;7.87;5.47;;;1.20;99.90;;;;;;5011191;28;20200;-69
2021/03/08 04:23:10;;;;;;;7.83;6.10;;;1.20;99.90;;;;;;5010263;28;20443;-68
2021/03/08 04:25:37;;;;;;;9.23;5.67;;;1.20;99.90;;;;;;5011172;28;20429;-67
2021/03/08 04:28:05;;;;;;;6.10;5.47;;;1.30;99.90;;;;;;5011031;28;20446;-68
2021/03/08 04:30:33;;;;;;;9.00;5.37;;;1.20;99.90;;;;;;5010826;28;20407;-68
2021/03/08 04:32:59;;;;;;;7.57;5.30;;;1.10;99.90;;;;;;5011111;28;20422;-67
2021/03/08 04:35:28;;;;;;;6.97;6.00;;;1.10;99.90;;;;;;5011005;28;20430;-65
2021/03/08 04:37:57;;;;;;;9.27;6.03;;;1.10;99.90;;;;;;4993798;28;20432;-66
2021/03/08 04:40:23;;;;;;;7.40;5.93;;;1.00;99.90;;;;;;5011025;28;20451;-67
2021/03/08 04:42:50;;;;;;;6.80;5.83;;;1.00;99.90;;;;;;5010967;28;20758;-67
2021/03/08 04:45:18;;;;;;;8.17;5.90;;;0.90;99.90;;;;;;5011115;28;20432;-66
2021/03/08 04:47:45;;;;;;;8.37;6.47;;;0.80;99.90;;;;;;5010901;28;20412;-67
2021/03/08 04:50:12;;;;;;;8.33;6.23;;;0.60;99.90;;;;;;5011055;28;20753;-67
2021/03/08 04:52:47;;;;;;;14.73;6.43;;;0.50;99.90;;;;;;5012444;28;20455;-68
2021/03/08 04:55:14;;;;;;;9.57;6.43;;;0.50;99.90;;;;;;5010781;28;20426;-67
2021/03/08 04:57:41;;;;;;;11.83;6.10;;;0.60;99.90;;;;;;5010897;28;20766;-69
2021/03/08 05:00:08;;;;;;;7.83;6.20;;;0.50;99.90;;;;;;5010818;28;20897;-67
2021/03/08 05:02:38;;;;;;;10.30;6.87;;;0.50;99.90;;;;;;5010805;28;20466;-68
2021/03/08 05:05:07;;;;;;;9.80;7.10;;;0.60;99.90;;;;;;5010892;28;20448;-68
2021/03/08 05:07:37;;;;;;;9.93;6.70;;;0.60;99.90;;;;;;5011100;28;20431;-66
2021/03/08 05:10:04;;;;;;;6.77;6.03;;;0.50;99.90;;;;;;5010965;28;20419;-66
2021/03/08 05:12:31;;;;;;;8.33;6.30;;;0.40;99.90;;;;;;5010981;28;20443;-67
2021/03/08 05:14:59;;;;;;;11.00;6.97;;;0.40;99.90;;;;;;5010667;28;20426;-68
2021/03/08 05:17:26;;;;;;;10.70;7.40;;;0.30;99.90;;;;;;5010842;28;20733;-68
2021/03/08 05:19:52;;;;;;;8.77;6.20;;;0.40;99.90;;;;;;5010638;28;20435;-69
2021/03/08 05:22:19;;;;;;;11.70;7.87;;;0.40;99.90;;;;;;5011008;28;20789;-66
2021/03/08 05:24:50;;;;;;;10.37;6.37;;;0.40;99.90;;;;;;5010303;28;20474;-66
2021/03/08 05:27:16;;;;;;;10.17;7.40;;;0.40;99.90;;;;;;5011114;28;20419;-69
2021/03/08 05:29:44;;;;;;;10.93;7.50;;;0.40;99.90;;;;;;5014137;28;20423;-67
2021/03/08 05:32:14;;;;;;;12.10;7.33;;;0.40;99.90;;;;;;5013917;28;20474;-67
2021/03/08 05:34:45;;;;;;;9.70;7.30;;;0.40;99.90;;;;;;5014459;28;20959;-67
2021/03/08 05:37:13;;;;;;;12.73;8.43;;;0.50;99.90;;;;;;4996069;28;20913;-67
2021/03/08 05:39:43;;;;;;;10.57;7.37;;;0.50;99.90;;;;;;5014198;28;20421;-66
2021/03/08 05:42:13;;;;;;;9.83;6.80;;;0.50;99.90;;;;;;5013832;28;20947;-68
2021/03/08 05:44:49;;;;;;;11.13;7.33;;;0.50;99.90;;;;;;5014150;28;20852;-68
2021/03/08 05:47:46;;;;;;;11.30;7.23;;;0.50;99.90;;;;;;5013588;28;20443;-69
2021/03/08 05:50:15;;;;;;;11.93;7.27;;;0.50;99.90;;;;;;4958811;28;20423;-66
2021/03/08 05:53:21;;;;;;;10.77;7.70;;;0.40;99.90;;;;;;5027440;28;20480;-66
2021/03/08 05:56:18;;;;;;;13.47;8.10;;;0.40;99.90;;;;;;5013903;28;20498;-68
2021/03/08 05:59:06;;;;;;;12.10;7.93;;;0.40;99.90;;;;;;5013901;28;20463;-68
2021/03/08 06:01:38;;;;;;;15.83;8.97;;;0.20;99.90;;;;;;5021628;28;20462;-68
2021/03/08 06:04:24;;;;;;;12.80;7.10;;;0.20;99.90;;;;;;5023799;28;20427;-67
2021/03/08 06:06:50;;;;;;;9.80;7.40;;;0.20;99.90;;;;;;5033311;28;20788;-67
2021/03/08 06:09:25;;;;;;;12.67;7.57;;;0.10;99.90;;;;;;5033344;28;20469;-66
2021/03/08 06:12:05;;;;;;;16.17;8.63;;;0.10;99.90;;;;;;5020876;28;20198;-66
2021/03/08 06:14:54;;;;;;;12.27;7.93;;;0.20;99.90;;;;;;5013451;28;20425;-67
2021/03/08 06:17:22;;;;;;;14.40;8.30;;;0.20;99.90;;;;;;5031971;28;20410;-67
2021/03/08 06:19:48;;;;;;;13.53;8.17;;;0.40;99.90;;;;;;5032773;28;20433;-66
2021/03/08 06:22:15;;;;;;;12.70;7.63;;;0.50;99.90;;;;;;5026830;28;20459;-67
2021/03/08 06:24:43;;;;;;;16.93;7.87;;;0.50;99.90;;;;;;5022735;28;20477;-66
2021/03/08 06:27:11;;;;;;;11.63;8.07;;;0.70;99.90;;;;;;5032684;28;20407;-67
2021/03/08 06:29:38;;;;;;;14.13;7.70;;;0.60;99.90;;;;;;5031880;28;20410;-66
2021/03/08 06:32:05;;;;;;;17.77;8.13;;;0.10;99.90;;;;;;5031929;28;20426;-67
2021/03/08 06:34:31;;;;;;;13.47;7.93;;;0.50;99.90;;;;;;5020040;28;20769;-64
2021/03/08 06:37:03;;;;;;;18.77;7.70;;;0.50;99.90;;;;;;5012997;28;20411;-64
2021/03/08 06:39:31;;;;;;;9.93;7.70;;;0.50;99.90;;;;;;5017698;28;20508;-64
2021/03/08 06:41:59;;;;;;;11.13;7.13;;;1.10;99.90;;;;;;5012755;28;20454;-65
2021/03/08 06:44:25;;;;;;;15.37;7.90;;;0.80;99.90;;;;;;5024933;28;20414;-66
2021/03/08 06:46:51;;;;;;;16.90;8.03;;;0.70;99.90;;;;;;5012885;28;20410;-65
2021/03/08 06:49:17;;;;;;;11.83;7.30;;;1.10;99.90;;;;;;5013919;28;20455;-66
2021/03/08 06:52:05;;;;;;;10.83;7.23;;;1.10;99.90;;;;;;5031318;28;20535;-66
2021/03/08 06:54:35;;;;;;;10.10;6.93;;;1.20;99.90;;;;;;5012621;28;20187;-66
2021/03/08 06:57:01;;;;;;;10.87;7.30;;;1.30;99.90;;;;;;5031017;28;20414;-65
2021/03/08 06:59:27;;;;;;;13.23;8.53;;;1.40;99.90;;;;;;5022023;28;20749;-63
2021/03/08 07:01:54;;;;;;;10.83;6.37;;;1.40;99.90;;;;;;5018967;28;20545;-68
2021/03/08 07:04:25;;;;;;;10.10;7.07;;;1.40;99.90;;;;;;5032074;28;20176;-67
2021/03/08 07:07:05;;;;;;;13.10;7.10;;;0.60;99.90;;;;;;5007655;28;20797;-66
2021/03/08 07:09:32;;;;;;;9.10;6.83;;;1.70;99.90;;;;;;5012454;28;21012;-64
2021/03/08 07:12:08;;;;;;;9.63;7.30;;;1.80;99.90;;;;;;5032051;28;20852;-67
2021/03/08 07:14:35;;;;;;;11.67;6.87;;;1.80;99.90;;;;;;5030866;28;20430;-67
2021/03/08 07:17:00;;;;;;;10.97;7.70;;;1.80;99.90;;;;;;5026145;28;20439;-66
2021/03/08 07:19:26;;;;;;;13.73;7.00;;;1.80;99.90;;;;;;5031161;28;20780;-69
2021/03/08 07:21:52;;;;;;;13.37;7.07;;;1.90;99.90;;;;;;5018332;28;20202;-68
2021/03/08 07:24:18;;;;;;;10.33;6.87;;;1.90;99.90;;;;;;5024090;28;20175;-66
2021/03/08 07:26:55;;;;;;;9.70;7.27;;;2.00;99.90;;;;;;5027574;28;20905;-69
2021/03/08 07:29:23;;;;;;;20.20;7.23;;;2.20;99.90;;;;;;5026381;28;20201;-68
2021/03/08 07:31:54;;;;;;;10.57;7.40;;;2.30;99.60;;;;;;5028609;28;20426;-65
2021/03/08 07:34:20;;;;;;;8.50;6.60;;;2.40;99.30;;;;;;5024549;28;20462;-67
2021/03/08 07:37:00;;;;;;;8.43;6.50;;;2.60;99.90;;;;;;5008283;28;20422;-68
2021/03/08 07:39:26;;;;;;;11.57;6.63;;;2.60;99.10;;;;;;5020308;28;20406;-69
2021/03/08 07:41:56;;;;;;;12.20;7.27;;;2.70;99.10;;;;;;5013467;28;20458;-68
2021/03/08 07:44:24;;;;;;;8.53;6.57;;;2.70;98.20;;;;;;5028181;28;20441;-70
2021/03/08 07:46:50;;;;;;;8.57;6.13;;;2.90;99.80;;;;;;5031587;28;20417;-67
2021/03/08 07:49:17;;;;;;;10.23;7.20;;;3.40;98.00;;;;;;5023198;28;20423;-67
2021/03/08 07:52:04;;;;;;;10.03;6.13;;;3.20;98.10;;;;;;5012569;28;20445;-67
2021/03/08 07:54:30;;;;;;;10.73;5.90;;;3.30;97.70;;;;;;5010582;28;20415;-68
2021/03/08 07:56:58;;;;;;;9.93;6.63;;;3.40;97.10;;;;;;5011769;28;20459;-69
2021/03/08 07:59:25;;;;;;;8.80;6.43;;;3.40;97.30;;;;;;5011508;28;20693;-66
2021/03/08 08:01:51;;;;;;;9.53;6.33;;;3.60;95.50;;;;;;5010599;28;20471;-68
2021/03/08 08:04:17;;;;;;;9.07;6.93;;;3.60;95.10;;;;;;5006344;28;20431;-68
2021/03/08 08:06:43;;;;;;;9.90;7.83;;;3.70;94.50;;;;;;5011043;28;20181;-69
2021/03/08 08:09:10;;;;;;;14.20;6.50;;;3.70;94.30;;;;;;4993762;28;20173;-68
2021/03/08 08:11:36;;;;;;;13.23;6.60;;;3.80;94.60;;;;;;5010851;28;20188;-67
2021/03/08 08:14:04;;;;;;;8.70;6.03;;;3.80;94.00;;;;;;5011217;28;20447;-67
2021/03/08 08:16:35;;;;;;;7.47;6.00;;;3.80;93.80;;;;;;5004722;28;20424;-68
2021/03/08 08:19:03;;;;;;;8.83;6.73;;;3.90;93.70;;;;;;5011294;28;20519;-68
2021/03/08 08:21:35;;;;;;;8.80;6.13;;;4.10;93.80;;;;;;4992731;28;20517;-69
2021/03/08 08:24:08;;;;;;;14.20;6.93;;;4.00;93.10;;;;;;5011119;28;20451;-69
2021/03/08 08:26:34;;;;;;;11.83;6.80;;;4.10;92.20;;;;;;5010330;28;20419;-67
2021/03/08 08:29:00;;;;;;;8.53;5.83;;;4.10;92.90;;;;;;5011120;28;20511;-68
2021/03/08 08:31:26;;;;;;;10.33;6.23;;;4.10;93.10;;;;;;5011145;28;20634;-67
2021/03/08 08:33:54;;;;;;;9.63;7.50;;;4.20;93.40;;;;;;5010872;28;20430;-70
2021/03/08 08:36:21;;;;;;;9.67;6.93;;;4.20;92.90;;;;;;5011120;28;20227;-66
2021/03/08 08:39:09;;;;;;;9.60;6.50;;;4.30;93.80;;;;;;5010814;28;20425;-67
2021/03/08 08:41:35;;;;;;;9.07;6.27;;;4.40;92.20;;;;;;4995845;28;20463;-70
2021/03/08 08:44:27;;;;;;;7.53;6.40;;;4.50;92.20;;;;;;4993525;28;20519;-67
2021/03/08 08:47:22;;;;;;;11.63;7.30;;;4.60;92.00;;;;;;5010799;28;20533;-67
2021/03/08 08:49:58;;;;;;;10.57;6.13;;;4.70;91.60;;;;;;5011185;28;20774;-70
2021/03/08 08:52:42;;;;;;;8.37;6.40;;;4.80;90.90;;;;;;5010491;28;20462;-68
2021/03/08 08:55:08;;;;;;;9.20;6.73;;;4.80;90.90;;;;;;5010548;28;20830;-68
2021/03/08 08:57:34;;;;;;;10.97;7.10;;;4.80;90.00;;;;;;5010425;28;20909;-70
2021/03/08 09:00:21;;;;;;;8.83;6.83;;;4.80;90.80;;;;;;5010986;28;20469;-68
2021/03/08 09:02:47;;;;;;;10.10;6.33;;;4.70;91.00;;;;;;5012949;28;20287;-68
2021/03/08 09:05:28;;;;;;;13.00;6.43;;;5.00;91.10;;;;;;5014673;28;20416;-68
2021/03/08 09:08:18;;;;;;;30.73;7.73;;;5.10;90.00;;;;;;5013807;28;20429;-69
2021/03/08 09:10:44;;;;;;;12.47;6.40;;;5.20;90.00;;;;;;5014738;28;20983;-69
2021/03/08 09:13:10;;;;;;;11.57;6.47;;;5.20;89.80;;;;;;5014697;28;20454;-68
2021/03/08 09:15:36;;;;;;;15.80;6.27;;;5.30;89.00;;;;;;4997019;28;20172;-68
2021/03/08 09:18:03;;;;;;;15.40;6.90;;;5.30;87.20;;;;;;5014780;28;20419;-68
2021/03/08 09:20:31;;;;;;;8.97;6.23;;;5.40;86.10;;;;;;5014324;28;20177;-68
2021/03/08 09:23:02;;;;;;;10.10;6.37;;;4.80;85.60;;;;;;5014490;28;20443;-68
2021/03/08 09:25:31;;;;;;;9.10;6.50;;;5.50;86.60;;;;;;5014081;28;20909;-67
2021/03/08 09:28:01;;;;;;;18.10;7.30;;;5.60;86.90;;;;;;5014281;28;20426;-67
2021/03/08 09:30:33;;;;;;;9.43;5.80;;;5.70;85.00;;;;;;5013995;28;20415;-67
2021/03/08 09:33:01;;;;;;;7.83;6.13;;;5.80;84.90;;;;;;5014351;28;20439;-68
2021/03/08 09:35:39;;;;;;;8.47;6.37;;;5.90;83.30;;;;;;5013906;28;20415;-70
2021/03/08 09:38:15;;;;;;;8.63;5.70;;;6.00;81.10;;;;;;4996726;28;20415;-69
2021/03/08 09:40:46;;;;;;;11.20;7.27;;;6.00;80.20;;;;;;5012661;28;20421;-68
2021/03/08 09:43:32;;;;;;;8.73;5.63;;;5.90;79.80;;;;;;5013827;28;20420;-67
2021/03/08 09:46:05;;;;;;;7.53;5.50;;;6.00;80.20;;;;;;5014035;28;20426;-67
2021/03/08 09:48:36;;;;;;;10.20;6.60;;;6.00;79.20;;;;;;5013292;28;20442;-68
2021/03/08 09:51:04;;;;;;;9.23;6.57;;;6.10;80.40;;;;;;5013997;28;21030;-69
2021/03/08 09:53:38;;;;;;;10.53;6.70;;;6.30;78.90;;;;;;5013930;28;20474;-67
2021/03/08 09:56:10;;;;;;;8.40;5.77;;;6.30;78.30;;;;;;5014070;28;20418;-68
2021/03/08 09:58:36;;;;;;;8.80;5.77;;;6.30;78.40;;;;;;5013806;28;20426;-68
2021/03/08 10:01:16;;;;;;;8.43;5.50;;;6.40;75.40;;;;;;5013653;28;20545;-68
2021/03/08 10:03:42;;;;;;;8.93;6.10;;;6.40;74.70;;;;;;5013446;28;20407;-67
2021/03/08 10:06:20;;;;;;;8.03;6.10;;;6.60;76.60;;;;;;5013430;28;20416;-69
2021/03/08 10:08:46;;;;;;;9.07;5.40;;;6.70;73.90;;;;;;5013390;28;20453;-68
2021/03/08 10:11:29;;;;;;;10.43;6.10;;;6.70;70.40;;;;;;5013668;28;20468;-69
2021/03/08 10:13:56;;;;;;;6.77;5.20;;;6.70;72.60;;;;;;5012274;28;20173;-68
2021/03/08 10:16:24;;;;;;;6.23;4.60;;;6.80;70.30;;;;;;5013070;28;20427;-69
2021/03/08 10:18:50;;;;;;;7.83;5.17;;;7.00;69.10;;;;;;5013304;28;20800;-67
2021/03/08 10:21:16;;;;;;;9.77;5.63;;;7.00;68.60;;;;;;5012985;28;20455;-67
2021/03/08 10:23:42;;;;;;;10.70;5.67;;;7.00;70.20;;;;;;5013144;28;20412;-66
2021/03/08 10:26:13;;;;;;;8.07;5.13;;;7.10;68.20;;;;;;5012887;28;20812;-67
2021/03/08 10:28:50;;;;;;;7.97;5.63;;;7.20;70.30;;;;;;5012995;28;20207;-69
2021/03/08 10:31:27;;;;;;;7.90;5.77;;;7.40;68.70;;;;;;5012907;28;20426;-67
2021/03/08 10:33:57;;;;;;;10.77;5.70;;;7.40;66.60;;;;;;5013119;28;20767;-67
2021/03/08 10:36:26;;;;;;;9.17;5.50;;;7.50;68.40;;;;;;5012775;28;20419;-68
2021/03/08 10:38:57;;;;;;;6.97;5.13;;;7.50;66.70;;;;;;5012900;28;20427;-66
2021/03/08 10:41:25;;;;;;;7.33;4.90;;;7.60;66.90;;;;;;5012811;28;20455;-66
2021/03/08 10:43:53;;;;;;;10.77;6.47;;;7.50;66.00;;;;;;5013046;28;20424;-65
2021/03/08 10:46:19;;;;;;;11.37;5.90;;;7.50;68.80;;;;;;5012870;28;20416;-67
2021/03/08 10:48:57;;;;;;;6.63;5.20;;;7.60;68.00;;;;;;5012798;28;20952;-67
2021/03/08 10:51:23;;;;;;;7.83;5.27;;;7.60;67.70;;;;;;5012631;28;20490;-69
2021/03/08 10:54:00;;;;;;;7.47;5.33;;;7.80;66.50;;;;;;5013206;28;20454;-69
2021/03/08 10:56:27;;;;;;;8.57;5.33;;;7.90;65.00;;;;;;5011828;28;20252;-68
2021/03/08 10:58:54;;;;;;;11.17;6.77;;;8.00;66.80;;;;;;5012741;28;20427;-68
2021/03/08 11:01:20;;;;;;;9.00;5.80;;;8.20;67.60;;;;;;5012500;28;20542;-68
2021/03/08 11:03:46;;;;;;;7.20;5.20;;;8.10;64.70;;;;;;5012584;28;20503;-70
2021/03/08 11:06:13;;;;;;;10.50;5.53;;;8.20;66.50;;;;;;5012678;28;20772;-68
2021/03/08 11:08:40;;;;;;;8.37;5.50;;;8.40;64.20;;;;;;5012410;28;20529;-68
2021/03/08 11:11:21;;;;;;;6.90;5.37;;;8.50;63.30;;;;;;5012544;28;20970;-68
2021/03/08 11:13:47;;;;;;;9.83;5.93;;;8.50;62.60;;;;;;5012239;28;20442;-68
2021/03/08 11:16:14;;;;;;;8.47;5.90;;;8.30;62.40;;;;;;5012377;28;20419;-69
2021/03/08 11:18:41;;;;;;;7.90;6.40;;;8.20;63.80;;;;;;4994539;28;20501;-68
2021/03/08 11:21:31;;;;;;;6.77;5.83;;;8.40;64.50;;;;;;5012129;28;20462;-67
2021/03/08 11:24:20;;;;;;;8.50;6.17;;;8.50;64.50;;;;;;5012242;28;20450;-68
2021/03/08 11:27:16;;;;;;;8.23;5.73;;;8.70;63.20;;;;;;5011566;28;20411;-69
2021/03/08 11:30:04;;;;;;;7.50;5.67;;;8.90;63.70;;;;;;5011769;28;20438;-68
2021/03/08 11:32:32;;;;;;;8.67;5.90;;;9.00;62.70;;;;;;5011891;28;20431;-69
2021/03/08 11:34:58;;;;;;;8.83;5.30;;;9.30;60.30;;;;;;5011768;28;20419;-68
2021/03/08 11:37:25;;;;;;;9.57;6.20;;;9.30;60.00;;;;;;5011964;28;20927;-68
2021/03/08 11:39:54;;;;;;;8.13;6.63;;;9.50;60.20;;;;;;5011878;28;20176;-68
2021/03/08 11:42:21;;;;;;;7.90;6.07;;;9.50;60.10;;;;;;5011844;28;20203;-67
2021/03/08 11:44:47;;;;;;;8.47;6.77;;;9.70;61.50;;;;;;5011708;28;20407;-68
2021/03/08 11:47:14;;;;;;;8.63;5.90;;;9.90;59.80;;;;;;5011750;28;20268;-68
2021/03/08 11:49:41;;;;;;;9.77;4.83;;;10.10;58.60;;;;;;5011798;28;20169;-68
2021/03/08 11:52:07;;;;;;;6.97;5.10;;;10.20;59.70;;;;;;5011878;28;20174;-66
2021/03/08 11:54:33;;;;;;;6.90;5.43;;;10.40;56.20;;;;;;5011586;28;20180;-68
2021/03/08 11:57:00;;;;;;;7.37;5.00;;;10.60;57.80;;;;;;5011975;28;20558;-68
2021/03/08 11:59:26;;;;;;;8.03;4.50;;;10.90;57.10;;;;;;5011361;28;20219;-68
2021/03/08 12:01:59;;;;;;;7.03;4.77;;;11.10;56.00;;;;;;5011475;28;20773;-69
2021/03/08 12:04:25;;;;;;;7.87;4.80;;;11.30;53.10;;;;;;5010198;28;20176;-69
2021/03/08 12:06:51;;;;;;;6.50;4.50;;;11.40;54.40;;;;;;5011248;28;20180;-67
2021/03/08 12:09:16;;;;;;;6.67;5.00;;;11.70;54.30;;;;;;5011306;28;20618;-69
2021/03/08 12:11:42;;;;;;;5.87;4.93;;;12.20;53.20;;;;;;5011672;28;20563;-68
2021/03/08 12:14:07;;;;;;;7.00;4.83;;;12.50;52.10;;;;;;5010047;28;20180;-68
2021/03/08 12:16:33;;;;;;;6.77;5.63;;;12.60;49.70;;;;;;5011261;28;20199;-67
2021/03/08 12:18:59;;;;;;;6.57;5.43;;;12.70;50.60;;;;;;5011184;28;20184;-68
2021/03/08 12:21:25;;;;;;;6.37;5.50;;;12.80;50.10;;;;;;4993079;28;20200;-68
2021/03/08 12:23:51;;;;;;;7.63;5.30;;;12.90;49.90;;;;;;5010360;28;20188;-69
2021/03/08 12:26:18;;;;;;;6.53;5.30;;;13.00;48.40;;;;;;5011208;28;20172;-66
2021/03/08 12:28:44;;;;;;;11.20;6.57;;;13.10;49.40;;;;;;5011366;28;20181;-69
2021/03/08 12:31:09;;;;;;;7.97;6.03;;;12.70;47.80;;;;;;5011248;28;20187;-68
2021/03/08 12:33:37;;;;;;;6.60;5.73;;;13.40;48.20;;;;;;5011192;28;20184;-68
2021/03/08 12:36:04;;;;;;;6.90;5.73;;;13.90;48.00;;;;;;5011178;28;20175;-67
2021/03/08 12:38:30;;;;;;;7.97;5.33;;;14.30;45.50;;;;;;5014146;28;20344;-68
2021/03/08 12:40:55;;;;;;;6.43;5.10;;;14.70;45.00;;;;;;5015263;28;20290;-67
2021/03/08 12:43:21;;;;;;;6.23;5.33;;;15.00;43.50;;;;;;5015305;28;20181;-68
2021/03/08 12:45:47;;;;;;;6.97;5.17;;;15.20;43.00;;;;;;5015011;28;20176;-67
2021/03/08 12:48:12;;;;;;;7.67;5.77;;;15.40;41.30;;;;;;5014706;28;20222;-68
2021/03/08 12:50:38;;;;;;;9.20;5.33;;;15.30;41.70;;;;;;5013753;28;20569;-67
2021/03/08 12:53:04;;;;;;;6.53;5.43;;;15.40;41.40;;;;;;5015957;28;20220;-67
2021/03/08 12:55:29;;;;;;;7.40;5.87;;;15.60;40.40;;;;;;5015007;28;20556;-68
2021/03/08 12:57:55;;;;;;;8.53;6.27;;;15.50;40.20;;;;;;5015093;28;20184;-67
2021/03/08 13:00:21;;;;;;;7.70;5.60;;;15.60;40.20;;;;;;5015248;28;20188;-69
2021/03/08 13:02:46;;;;;;;9.13;5.60;;;15.50;40.00;;;;;;5014569;28;20658;-67
2021/03/08 13:05:12;;;;;;;7.77;5.77;;;15.20;40.10;;;;;;5014945;28;20176;-67
2021/03/08 13:07:38;;;;;;;6.13;5.30;;;15.30;41.00;;;;;;5014614;28;20215;-68